West Potrero (157) Station Data

Red Flag Warning: No
Fire Weather Zone: 250
SDGE Region: Mountain Empire
Lat/Lon: 32.612/-116.613

Observations

Time Wind Speed/Gust Temp(F) RH Fuel Moist Fuel Temp(F) Dewpt(F) Tmax(F) Tmin(F) Accum Precip 10-min Precip SL Press(mb)
5/24 8:30am 34 3 G 6 73° 28% - - 38° 74.5° 49° - - 869.0
5/24 8:20am 30 4 G 8 70° 34% - - 41° 72.1° 49° - - 871.0
5/24 8:10am 37 5 G 8 68° 42% - - 44° 69.6° 49° - - 874.0
5/24 8:00am 29 5 G 7 66° 48% - - 46° 66.2° 49° - - 875.0
5/24 7:50am 44 4 G 6 65° 51% - - 46° 65.2° 49° - - 876.0
5/24 7:40am 35 3 G 5 64° 49% - - 45° 64.8° 49° - - 875.0
5/24 7:30am 42 3 G 5 64° 50% - - 45° 64.4° 49° - - 876.0
5/24 7:20am 32 2 G 3 62° 54% - - 45° 63° 49° - - 877.0
5/24 7:10am 53 4 G 6 59° 57% - - 44° 60.8° 49° - - 877.0
5/24 7:00am 25 1 G 2 59° 58% - - 44° 59.9° 49° - - 878.0
5/24 6:50am 226 1 G 4 57° 60% - - 43° 57.9° 49° - - 878.0
5/24 6:40am 160 2 G 4 54° 65% - - 42° 57.1° 49° - - 880.0
5/24 6:30am 267 3 G 5 52° 69% - - 42° 57.1° 49° - - 881.0
5/24 6:20am 29 2 G 4 52° 69% - - 42° 57.1° 49° - - 881.0
5/24 6:10am 244 0 G 2 50° 73% - - 42° 57.1° 49° - - 882.0
5/24 6:00am 328 1 G 2 51° 70% - - 41° 57.1° 49° - - 881.0
5/24 5:50am 304 0 G 2 52° 68% - - 42° 57.1° 49° - - 880.0
5/24 5:40am 89 1 G 2 54° 65% - - 43° 57.1° 49° - - 880.0
5/24 5:30am 101 2 G 3 53° 71% - - 43° 57.1° 49° - - 882.0
5/24 5:20am 62 3 G 5 52° 71% - - 43° 57.1° 49° - - 882.0
5/24 5:10am 73 3 G 4 51° 74% - - 43° 57.1° 49° - - 883.0
5/24 5:00am 58 3 G 4 52° 72% - - 43° 57.1° 49° - - 882.0
5/24 4:50am 50 4 G 6 52° 74% - - 44° 57.1° 49° - - 883.0
5/24 4:40am 44 4 G 6 50° 77% - - 43° 57.1° 49° - - 884.0
5/24 4:30am 54 3 G 5 50° 75% - - 43° 57.1° 49° - - 883.0
5/24 4:20am 54 1 G 3 53° 75% - - 45° 57.1° 49.6° - - 884.0
5/24 4:10am 115 2 G 3 52° 78% - - 45° 57.1° 49.6° - - 885.0
5/24 4:00am 54 3 G 4 51° 78% - - 44° 57.1° 49.6° - - 884.0
5/24 3:50am 76 2 G 5 50° 78% - - 44° 57.1° 49.6° - - 884.0
5/24 3:40am 41 3 G 5 50° 76% - - 43° 57.1° 49.6° - - 883.0
5/24 3:30am 39 0 G 2 52° 74% - - 44° 57.1° 51.1° - - 883.0
5/24 3:20am 81 0 G 1 53° 71% - - 44° 57.1° 51.1° - - 882.0
5/24 3:10am 103 1 G 3 55° 73% - - 46° 57.1° 51.1° - - 884.0
5/24 3:00am 107 2 G 3 53° 76% - - 46° 57.1° 51.1° - - 884.0
5/24 2:50am 88 2 G 3 52° 78% - - 46° 57.1° 51.1° - - 885.0
5/24 2:40am 44 3 G 5 52° 78% - - 45° 57.1° 51.1° - - 885.0
5/24 2:30am 107 1 G 3 52° 79% - - 46° 57.1° 51.1° - - 885.0
5/24 2:20am 133 1 G 2 52° 79% - - 46° 57.1° 51.1° - - 885.0
5/24 2:10am 114 1 G 3 52° 78% - - 45° 57.1° 51.1° - - 885.0
5/24 2:00am 20 3 G 4 53° 76% - - 45° 57.1° 51.8° - - 884.0
5/24 1:50am 35 1 G 3 54° 74% - - 46° 57.1° 53.3° - - 884.0
5/24 1:40am 35 1 G 2 55° 73% - - 47° 57.1° 54.3° - - 883.0
5/24 1:30am 95 2 G 4 56° 76% - - 48° 57.1° 54.3° - - 885.0
5/24 1:20am 87 1 G 3 55° 74% - - 47° 57.1° 54.3° - - 884.0
5/24 1:10am 2 2 G 4 56° 73% - - 48° 57.1° 54.3° - - 884.0
5/24 1:00am 97 1 G 3 57° 73% - - 48° 57.1° 54.3° - - 884.0
5/24 12:50am 73 3 G 5 56° 74% - - 48° 57.1° 54.3° - - 884.0
5/24 12:40am 36 6 G 7 55° 76% - - 48° 56.6° 54.3° - - 885.0
5/24 12:30am 48 4 G 5 55° 75% - - 47° 56° 54.3° - - 884.0
5/24 12:20am 61 1 G 3 56° 76% - - 48° 56° 54.5° - - 885.0
5/24 12:10am 91 2 G 5 55° 76% - - 47° 55.4° 54.5° - - 885.0
5/24 12:00am 58 3 G 5 55° 75% - - 47° 89.4° 49.4° - - 884.0
5/23 11:50pm 60 1 G 3 57° 72% - - 48° 89.4° 49.4° - - 883.0
5/23 11:40pm 116 1 G 2 58° 73% - - 49° 89.4° 49.4° - - 884.0
5/23 11:30pm 139 0 G 2 57° 72% - - 48° 89.4° 49.4° - - 883.0
5/23 11:20pm 0 0 G 0 58° 69% - - 48° 89.4° 49.4° - - 883.0
5/23 11:10pm 67 2 G 4 58° 71% - - 49° 89.4° 49.4° - - 883.0
5/23 11:00pm 46 1 G 2 58° 70% - - 48° 89.4° 49.4° - - 883.0
5/23 10:50pm 37 1 G 2 59° 69% - - 49° 89.4° 49.4° - - 883.0
5/23 10:40pm 95 2 G 2 59° 69% - - 49° 89.4° 49.4° - - 883.0
5/23 10:30pm 57 3 G 5 60° 68% - - 49° 89.4° 49.4° - - 882.0
5/23 10:20pm 349 1 G 4 61° 65% - - 49° 89.4° 49.4° - - 881.0
5/23 10:10pm 141 3 G 5 63° 64% - - 50° 89.4° 49.4° - - 882.0
5/23 10:00pm 74 3 G 4 61° 66% - - 50° 89.4° 49.4° - - 882.0
5/23 9:50pm 55 3 G 4 62° 65% - - 50° 89.4° 49.4° - - 882.0
5/23 9:40pm 99 1 G 3 62° 64% - - 50° 89.4° 49.4° - - 882.0
5/23 9:30pm 38 4 G 5 63° 62% - - 50° 89.4° 49.4° - - 881.0
5/23 9:20pm 31 4 G 5 66° 57% - - 50° 89.4° 49.4° - - 880.0
5/23 9:10pm 103 2 G 3 68° 53% - - 50° 89.4° 49.4° - - 878.0
5/23 9:00pm 169 2 G 3 70° 51% - - 51° 89.4° 49.4° - - 878.0
5/23 8:50pm 187 2 G 4 70° 50% - - 51° 89.4° 49.4° - - 878.0
5/23 8:40pm 205 4 G 6 70° 50% - - 51° 89.4° 49.4° - - 878.0
5/23 8:30pm 206 4 G 6 71° 49% - - 51° 89.4° 49.4° - - 877.0
5/23 8:20pm 211 3 G 5 71° 47% - - 50° 89.4° 49.4° - - 877.0
5/23 8:10pm 219 2 G 4 71° 48% - - 50° 89.4° 49.4° - - 877.0
5/23 8:00pm 193 1 G 2 72° 47% - - 50° 89.4° 49.4° - - 877.0
5/23 7:50pm 156 1 G 2 72° 46% - - 51° 89.4° 49.4° - - 877.0
5/23 7:40pm 182 1 G 4 73° 45% - - 50° 89.4° 49.4° - - 877.0
5/23 7:30pm 250 3 G 5 74° 44% - - 50° 89.4° 49.4° - - 877.0
5/23 7:20pm 228 2 G 4 74° 43% - - 50° 89.4° 49.4° - - 877.0
5/23 7:10pm 239 5 G 10 75° 43% - - 50° 89.4° 49.4° - - 877.0
5/23 7:00pm 258 8 G 11 75° 41% - - 50° 89.4° 49.4° - - 877.0
5/23 6:50pm 262 8 G 11 76° 40% - - 50° 89.4° 49.4° - - 877.0
5/23 6:40pm 259 10 G 12 77° 38% - - 49° 89.4° 49.4° - - 876.0
5/23 6:30pm 263 10 G 14 77° 36% - - 49° 89.4° 49.4° - - 876.0
5/23 6:20pm 263 9 G 12 78° 35% - - 48° 89.4° 49.4° - - 876.0
5/23 6:10pm 262 10 G 14 79° 34% - - 48° 89.4° 49.4° - - 876.0
5/23 6:00pm 257 11 G 14 79° 33% - - 48° 89.4° 49.4° - - 876.0
5/23 5:50pm 247 10 G 14 80° 33% - - 48° 89.4° 49.4° - - 876.0
5/23 5:40pm 250 10 G 14 80° 33% - - 48° 89.4° 49.4° - - 876.0
5/23 5:30pm 257 11 G 13 80° 33% - - 49° 89.4° 49.4° - - 876.0
5/23 5:20pm 257 11 G 16 81° 32% - - 48° 89.4° 49.4° - - 876.0
5/23 5:10pm 249 11 G 16 82° 30% - - 47° 89.4° 49.4° - - 876.0
5/23 5:00pm 260 8 G 11 83° 29% - - 47° 89.4° 49.4° - - 875.0
5/23 4:50pm 268 7 G 12 83° 29% - - 47° 89.4° 49.4° - - 875.0
5/23 4:40pm 263 10 G 15 82° 30% - - 48° 89.4° 49.4° - - 876.0
5/23 4:30pm 262 9 G 16 83° 29% - - 48° 89.4° 49.4° - - 875.0
5/23 4:20pm 259 9 G 14 83° 31% - - 49° 89.4° 49.4° - - 876.0
5/23 4:10pm 266 10 G 15 82° 32% - - 49° 89.4° 49.4° - - 876.0
5/23 4:00pm 263 12 G 16 82° 31% - - 48° 89.4° 49.4° - - 876.0
5/23 3:50pm 262 12 G 16 81° 33% - - 49° 89.4° 49.4° - - 876.0
5/23 3:40pm 264 11 G 17 82° 32% - - 49° 89.4° 49.4° - - 876.0
5/23 3:30pm 266 11 G 17 81° 33% - - 49° 89.4° 49.4° - - 876.0
5/23 3:20pm 254 16 G 22 80° 35% - - 50° 89.4° 49.4° - - 877.0
5/23 3:10pm 255 15 G 20 80° 35% - - 50° 89.4° 49.4° - - 877.0
5/23 3:00pm 257 17 G 21 79° 36% - - 50° 89.4° 49.4° - - 878.0
5/23 2:50pm 255 15 G 21 81° 34% - - 50° 89.4° 49.4° - - 877.0
5/23 2:40pm 252 13 G 18 81° 35% - - 51° 89.4° 49.4° - - 878.0
5/23 2:30pm 248 13 G 17 82° 34% - - 51° 89.4° 49.4° - - 877.0
5/23 2:20pm 255 12 G 16 82° 32% - - 50° 89.4° 49.4° - - 877.0
5/23 2:10pm 260 11 G 15 82° 32% - - 49° 89.4° 49.4° - - 877.0
5/23 2:00pm 258 12 G 17 82° 33% - - 50° 89.4° 49.4° - - 877.0
5/23 1:50pm 255 13 G 17 83° 32% - - 50° 89.4° 49.4° - - 877.0
5/23 1:40pm 255 12 G 17 83° 29% - - 48° 89.4° 49.4° - - 876.0
5/23 1:30pm 253 12 G 16 84° 27% - - 47° 89.4° 49.4° - - 875.0
5/23 1:20pm 249 13 G 17 84° 28% - - 47° 89.4° 49.4° - - 876.0
5/23 1:10pm 250 13 G 17 84° 27% - - 47° 89.4° 49.4° - - 875.0
5/23 1:00pm 250 14 G 18 85° 27% - - 47° 89.4° 49.4° - - 875.0
5/23 12:50pm 253 14 G 18 86° 26% - - 47° 89.4° 49.4° - - 875.0
5/23 12:40pm 256 12 G 17 87° 23% - - 44° 89.4° 49.4° - - 875.0
5/23 12:30pm 265 12 G 16 88° 21% - - 43° 89.4° 49.4° - - 874.0
5/23 12:20pm 259 10 G 16 88° 17% - - 39° 89.4° 49.4° - - 873.0
5/23 12:10pm 262 10 G 14 88° 16% - - 37° 89.4° 49.4° - - 873.0
5/23 12:00pm 253 11 G 16 89° 15% - - 35° 89.4° 49.4° - - 873.0
5/23 11:50am 257 10 G 14 89° 15% - - 34° 89.3° 49.4° - - 873.0
5/23 11:40am 248 9 G 14 88° 14% - - 33° 89.3° 49.4° - - 873.0
5/23 11:30am 254 9 G 12 88° 14% - - 32° 89.1° 49.4° - - 873.0
5/23 11:20am 254 7 G 12 89° 13% - - 32° 89.1° 49.4° - - 873.0
5/23 11:10am 267 7 G 9 88° 13% - - 31° 89.1° 49.4° - - 872.0
5/23 11:00am 251 6 G 10 88° 13% - - 30° 88.7° 49.4° - - 872.0
5/23 10:50am 257 6 G 10 88° 13% - - 30° 88.6° 49.4° - - 872.0
5/23 10:40am 249 5 G 8 88° 13% - - 30° 88.6° 49.4° - - 871.0
5/23 10:30am 274 3 G 5 88° 13% - - 30° 88.5° 49.4° - - 871.0
5/23 10:20am 225 1 G 5 88° 13% - - 30° 88.5° 49.4° - - 870.0
5/23 10:10am 279 2 G 6 88° 13% - - 31° 88.5° 49.4° - - 870.0
5/23 10:00am 227 2 G 4 86° 13% - - 30° 87° 49.4° - - 869.0
5/23 9:50am 261 1 G 4 85° 14% - - 30° 86.8° 49.4° - - 869.0
5/23 9:40am 280 2 G 5 84° 14% - - 30° 85.2° 49.4° - - 868.0
5/23 9:30am 282 1 G 3 83° 15% - - 30° 84° 49.4° - - 868.0
5/23 9:20am 296 2 G 4 82° 15% - - 30° 82.9° 49.4° - - 868.0
5/23 9:10am 291 3 G 5 81° 16% - - 30° 82.9° 49.4° - - 867.0
5/23 9:00am 273 1 G 4 82° 18% - - 34° 82.9° 49.4° - - 868.0
5/23 8:50am 237 1 G 2 81° 20% - - 35° 81.3° 49.4° - - 868.0
5/23 8:40am 272 1 G 3 79° 22% - - 37° 80.6° 49.4° - - 868.0
5/23 8:30am 301 1 G 2 78° 24% - - 38° 78° 49.4° - - 868.0
5/23 8:20am 12 2 G 2 77° 23% - - 36° 78° 49.4° - - 868.0
5/23 8:10am 25 1 G 2 75° 26% - - 37° 76.1° 49.4° - - 868.0
5/23 8:00am 42 1 G 2 72° 30% - - 39° 73.1° 49.4° - - 869.0
5/23 7:50am 20 2 G 3 68° 36% - - 40° 69.7° 49.4° - - 871.0
5/23 7:40am 19 2 G 3 65° 45% - - 43° 66.4° 49.4° - - 874.0
5/23 7:30am 20 2 G 3 63° 49% - - 43° 63.6° 49.4° - - 875.0
5/23 7:20am 333 0 G 2 61° 53% - - 44° 61.8° 49.4° - - 876.0
5/23 7:10am 121 1 G 2 59° 56% - - 43° 60.3° 49.4° - - 877.0
5/23 7:00am 74 0 G 2 56° 58% - - 41° 58.5° 49.4° - - 877.0
5/23 6:50am 344 1 G 3 57° 55% - - 41° 58.5° 49.4° - - 876.0
5/23 6:40am 78 1 G 4 55° 60% - - 41° 57° 49.4° - - 878.0
5/23 6:30am 51 3 G 5 53° 63% - - 41° 57° 49.4° - - 878.0
5/23 6:20am 73 3 G 5 53° 61% - - 40° 57° 49.4° - - 878.0
5/23 6:10am 68 2 G 4 50° 68% - - 40° 57° 49.4° - - 880.0
5/23 6:00am 62 2 G 3 50° 67% - - 39° 57° 49.4° - - 880.0